1870 Hurricane NOT_NAMED (1870252N13315)


IBTrACS version v04r00. Visit IBTrACS website for data access.
Please direct all questions to the IBTrACS Q and A forum

Storm track - Intensity - Wind Radii - Intensity Data - Source Data - All data

Summary Information

Storm ID 1870252N13315
Start Sep 8 12Z
Max Intensity 95 kt (Sep 18 06Z), 962 mb (Sep 19 00Z)
End Sep 20 18Z
ATCF IDs
Track status Best track data.

Storm track plot

Map of storm track

Intensity plots

Map of storm track

Radial wind information

No radial wind information for this storm


Position and Intensity Table

BASIN ISO_TIME_________ NATURE LAT LON MLC WIND MLC PRES
degrees north degrees east kts mb
NA 1870-09-08 12:00:00 TS 12.60 -44.70 35
NA 15:00:00 TS 12.85 -45.20 35
NA 18:00:00 TS 13.10 -45.70 35
NA 21:00:00 TS 13.35 -46.20 35
NA 1870-09-09 00:00:00 TS 13.60 -46.70 35
NA 03:00:00 TS 13.85 -47.20 35
NA 06:00:00 TS 14.10 -47.70 35
NA 09:00:00 TS 14.35 -48.20 37
NA 12:00:00 TS 14.60 -48.70 40
NA 15:00:00 TS 14.85 -49.20 42
NA 18:00:00 TS 15.10 -49.70 45
NA 21:00:00 TS 15.35 -50.20 47
NA 1870-09-10 00:00:00 TS 15.60 -50.70 50
NA 03:00:00 TS 15.85 -51.20 50
NA 06:00:00 TS 16.10 -51.70 50
NA 09:00:00 TS 16.35 -52.20 50
NA 12:00:00 TS 16.60 -52.70 50
NA 15:00:00 TS 16.85 -53.20 50
NA 18:00:00 TS 17.10 -53.70 50
NA 21:00:00 TS 17.35 -54.20 50
NA 1870-09-11 00:00:00 TS 17.60 -54.70 50
NA 03:00:00 TS 17.86 -55.20 52
NA 06:00:00 TS 18.10 -55.70 55
NA 09:00:00 TS 18.31 -56.20 57
NA 12:00:00 TS 18.50 -56.70 60
NA 15:00:00 TS 18.70 -57.19 67
NA 18:00:00 TS 18.90 -57.70 75
NA 21:00:00 TS 19.10 -58.25 80
NA 1870-09-12 00:00:00 TS 19.30 -58.80 85
NA 03:00:00 TS 19.50 -59.32 85
NA 06:00:00 TS 19.70 -59.80 85
NA 09:00:00 TS 19.90 -60.27 85
NA 12:00:00 TS 20.10 -60.70 85
NA 15:00:00 TS 20.30 -61.11 85
NA 18:00:00 TS 20.50 -61.50 85
NA 21:00:00 TS 20.70 -61.91 85
NA 1870-09-13 00:00:00 TS 20.90 -62.30 85
NA 03:00:00 TS 21.10 -62.67 85
NA 06:00:00 TS 21.30 -63.00 85
NA 09:00:00 TS 21.50 -63.32 85
NA 12:00:00 TS 21.70 -63.60 85
NA 15:00:00 TS 21.87 -63.83 85
NA 18:00:00 TS 22.10 -64.10 85
NA 21:00:00 TS 22.47 -64.52 85
NA 1870-09-14 00:00:00 TS 22.90 -65.00 85
NA 03:00:00 TS 23.30 -65.45 85
NA 06:00:00 TS 23.70 -65.90 85
NA 09:00:00 TS 24.11 -66.35 85
NA 12:00:00 TS 24.50 -66.80 85
NA 15:00:00 TS 24.85 -67.27 85
NA 18:00:00 TS 25.20 -67.70 85
NA 21:00:00 TS 25.60 -68.07 85
NA 1870-09-15 00:00:00 TS 26.00 -68.40 85
NA 03:00:00 TS 26.35 -68.70 82
NA 06:00:00 TS 26.70 -69.00 80
NA 09:00:00 TS 27.10 -69.35 80
NA 12:00:00 TS 27.50 -69.70 80
NA 15:00:00 TS 27.82 -70.00 80
NA 18:00:00 TS 28.20 -70.30 80
NA 21:00:00 TS 28.77 -70.64 80
NA 1870-09-16 00:00:00 TS 29.40 -71.00 80
NA 03:00:00 TS 29.96 -71.37 80
NA 06:00:00 TS 30.50 -71.70 80
NA 09:00:00 TS 31.05 -72.00 80
NA 12:00:00 TS 31.60 -72.20 80
NA 15:00:00 TS 32.17 -72.25 80
NA 18:00:00 TS 32.70 -72.20 80
NA 21:00:00 TS 33.12 -72.17 80
NA 1870-09-17 00:00:00 TS 33.50 -72.10 80
NA 03:00:00 TS 33.90 -71.97 80
NA 06:00:00 TS 34.30 -71.80 80
NA 09:00:00 TS 34.71 -71.64 80
NA 12:00:00 TS 35.10 -71.50 80 982
NA 15:00:00 TS 35.45 -71.40 82
NA 18:00:00 TS 35.80 -71.30 85
NA 21:00:00 TS 36.18 -71.17 87
NA 1870-09-18 00:00:00 TS 36.60 -71.00 90
NA 03:00:00 TS 37.08 -70.79 92
NA 06:00:00 TS 37.60 -70.50 95
NA 09:00:00 TS 38.11 -70.12 95
NA 12:00:00 TS 38.60 -69.70 95
NA 15:00:00 TS 39.02 -69.36 95
NA 18:00:00 TS 39.50 -68.90 95 965
NA 21:00:00 TS 40.16 -68.35 95 963
NA 1870-09-19 00:00:00 TS 40.90 -67.30 95 962
NA 03:00:00 TS 41.65 -65.57 87
NA 06:00:00 TS 42.20 -63.10 80
NA 09:00:00 TS 42.19 -59.98 75
NA 12:00:00 TS 42.20 -56.70 70
NA 15:00:00 TS 42.73 -53.74 70
NA 18:00:00 TS 43.80 -51.00 70 969
NA 21:00:00 TS 45.35 -48.44 70
NA 1870-09-20 00:00:00 TS 47.30 -46.00 70
NA 03:00:00 TS 49.47 -43.55 70
NA 06:00:00 ET 51.50 -41.00 70
NA 09:00:00 ET 52.74 -38.18 70
NA 12:00:00 ET 54.00 -35.30 70
NA 15:00:00 ET 55.94 -32.31 65
NA 18:00:00 ET 58.30 -29.00 60

Source Information

Agency Information
USA
TOKYO
CMA
HKO
NEWDELHI
REUNION
BOM
NADI
WELLINGTON
DS824
TD9636
TD9635
NEUMANN
MLC

All available IBTrACS Data

SEASON BASIN SUBBASIN ISO_TIME_________ NATURE LAT LON DIST2LAND LANDFALL IFLAG USA SSHS MLC LAT MLC LON MLC CLASS MLC WIND MLC PRES STORM SPEED STORM DIR
Year degrees north degrees east km km 1 degrees north degrees east kts mb kts degrees
1870 NA NA 1870-09-08 12:00:00 TS 12.60 -44.70 1179 1164 _____________O -1 12.60 -44.70 TS 35 11 297
1870 NA NA 15:00:00 TS 12.85 -45.20 1173 1158 _____________P -1 12.85 -45.20 TS 35 11 297
1870 NA NA 18:00:00 TS 13.10 -45.70 1162 1147 _____________O -1 13.10 -45.70 TS 35 11 297
1870 NA NA 21:00:00 TS 13.35 -46.20 1147 1139 _____________P -1 13.35 -46.20 TS 35 11 297
1870 NA NA 1870-09-09 00:00:00 TS 13.60 -46.70 1141 1130 _____________O -1 13.60 -46.70 TS 35 11 297
1870 NA NA 03:00:00 TS 13.85 -47.20 1130 1127 _____________P -1 13.85 -47.20 TS 35 11 297
1870 NA NA 06:00:00 TS 14.10 -47.70 1132 1126 _____________O -1 14.10 -47.70 TS 35 11 297
1870 NA NA 09:00:00 TS 14.35 -48.20 1126 1126 _____________P -1 14.35 -48.20 TS 37 11 297
1870 NA NA 12:00:00 TS 14.60 -48.70 1134 1129 _____________O -1 14.60 -48.70 TS 40 11 297
1870 NA NA 15:00:00 TS 14.85 -49.20 1134 1134 _____________P -1 14.85 -49.20 TS 42 11 297
1870 NA NA 18:00:00 TS 15.10 -49.70 1141 1137 _____________O -1 15.10 -49.70 TS 45 11 297
1870 NA NA 21:00:00 TS 15.35 -50.20 1139 1139 _____________P -1 15.35 -50.20 TS 47 11 297
1870 NA NA 1870-09-10 00:00:00 TS 15.60 -50.70 1151 1148 _____________O -1 15.60 -50.70 TS 50 11 297
1870 NA NA 03:00:00 TS 15.85 -51.20 1156 1156 _____________P -1 15.85 -51.20 TS 50 11 297
1870 NA NA 06:00:00 TS 16.10 -51.70 1173 1139 _____________O -1 16.10 -51.70 TS 50 11 297
1870 NA NA 09:00:00 TS 16.35 -52.20 1139 1113 _____________P -1 16.35 -52.20 TS 50 11 298
1870 NA NA 12:00:00 TS 16.60 -52.70 1113 1084 _____________O -1 16.60 -52.70 TS 50 11 298
1870 NA NA 15:00:00 TS 16.85 -53.20 1084 1064 _____________P -1 16.85 -53.20 TS 50 11 298
1870 NA NA 18:00:00 TS 17.10 -53.70 1064 1041 _____________O -1 17.10 -53.70 TS 50 11 298
1870 NA NA 21:00:00 TS 17.35 -54.20 1041 1027 _____________P -1 17.35 -54.20 TS 50 11 298
1870 NA NA 1870-09-11 00:00:00 TS 17.60 -54.70 1028 1011 _____________O -1 17.60 -54.70 TS 50 11 298
1870 NA NA 03:00:00 TS 17.86 -55.20 1019 1003 _____________P -1 17.86 -55.20 TS 52 11 298
1870 NA NA 06:00:00 TS 18.10 -55.70 1005 992 _____________O -1 18.10 -55.70 TS 55 11 295
1870 NA NA 09:00:00 TS 18.31 -56.20 992 938 _____________P -1 18.31 -56.20 TS 57 10 293
1870 NA NA 12:00:00 TS 18.50 -56.70 938 886 _____________O -1 18.50 -56.70 TS 60 10 293
1870 NA NA 15:00:00 TS 18.70 -57.19 886 834 _____________P -1 18.70 -57.19 TS 67 10 293
1870 NA NA 18:00:00 TS 18.90 -57.70 834 783 _____________O -1 18.90 -57.70 HU 75 11 292
1870 NA NA 21:00:00 TS 19.10 -58.25 772 722 _____________P -1 19.10 -58.25 HU 80 11 291
1870 NA NA 1870-09-12 00:00:00 TS 19.30 -58.80 722 673 _____________O -1 19.30 -58.80 HU 85 11 292
1870 NA NA 03:00:00 TS 19.50 -59.32 673 626 _____________P -1 19.50 -59.32 HU 85 10 293
1870 NA NA 06:00:00 TS 19.70 -59.80 626 591 _____________O -1 19.70 -59.80 HU 85 10 294
1870 NA NA 09:00:00 TS 19.90 -60.27 581 548 _____________P -1 19.90 -60.27 HU 85 9 295
1870 NA NA 12:00:00 TS 20.10 -60.70 548 517 _____________O -1 20.10 -60.70 HU 85 9 297
1870 NA NA 15:00:00 TS 20.30 -61.11 517 489 _____________P -1 20.30 -61.11 HU 85 9 298
1870 NA NA 18:00:00 TS 20.50 -61.50 489 465 _____________O -1 20.50 -61.50 HU 85 9 298
1870 NA NA 21:00:00 TS 20.70 -61.91 465 444 _____________P -1 20.70 -61.91 HU 85 9 298
1870 NA NA 1870-09-13 00:00:00 TS 20.90 -62.30 444 427 _____________O -1 20.90 -62.30 HU 85 8 299
1870 NA NA 03:00:00 TS 21.10 -62.67 428 421 _____________P -1 21.10 -62.67 HU 85 8 302
1870 NA NA 06:00:00 TS 21.30 -63.00 423 416 _____________O -1 21.30 -63.00 HU 85 7 303
1870 NA NA 09:00:00 TS 21.50 -63.32 421 416 _____________P -1 21.50 -63.32 HU 85 7 306
1870 NA NA 12:00:00 TS 21.70 -63.60 424 419 _____________O -1 21.70 -63.60 HU 85 6 308
1870 NA NA 15:00:00 TS 21.87 -63.83 434 429 _____________P -1 21.87 -63.83 HU 85 6 311
1870 NA NA 18:00:00 TS 22.10 -64.10 442 442 _____________O -1 22.10 -64.10 HU 85 9 313
1870 NA NA 21:00:00 TS 22.47 -64.52 472 470 _____________P -1 22.47 -64.52 HU 85 12 314
1870 NA NA 1870-09-14 00:00:00 TS 22.90 -65.00 507 505 _____________O -1 22.90 -65.00 HU 85 12 314
1870 NA NA 03:00:00 TS 23.30 -65.45 548 548 _____________P -1 23.30 -65.45 HU 85 12 314
1870 NA NA 06:00:00 TS 23.70 -65.90 592 592 _____________O -1 23.70 -65.90 HU 85 12 314
1870 NA NA 09:00:00 TS 24.11 -66.35 614 614 _____________P -1 24.11 -66.35 HU 85 11 314
1870 NA NA 12:00:00 TS 24.50 -66.80 635 631 _____________O -1 24.50 -66.80 HU 85 11 312
1870 NA NA 15:00:00 TS 24.85 -67.27 644 644 _____________P -1 24.85 -67.27 HU 85 11 311
1870 NA NA 18:00:00 TS 25.20 -67.70 669 669 _____________O -1 25.20 -67.70 HU 85 10 316
1870 NA NA 21:00:00 TS 25.60 -68.07 697 697 _____________P -1 25.60 -68.07 HU 85 10 322
1870 NA NA 1870-09-15 00:00:00 TS 26.00 -68.40 712 712 _____________O -1 26.00 -68.40 HU 85 9 323
1870 NA NA 03:00:00 TS 26.35 -68.70 718 718 _____________P -1 26.35 -68.70 HU 82 9 322
1870 NA NA 06:00:00 TS 26.70 -69.00 736 736 _____________O -1 26.70 -69.00 HU 80 10 322
1870 NA NA 09:00:00 TS 27.10 -69.35 758 753 _____________P -1 27.10 -69.35 HU 80 10 322
1870 NA NA 12:00:00 TS 27.50 -69.70 779 779 _____________O -1 27.50 -69.70 HU 80 9 321
1870 NA NA 15:00:00 TS 27.82 -70.00 797 797 _____________P -1 27.82 -70.00 HU 80 9 323
1870 NA NA 18:00:00 TS 28.20 -70.30 828 828 _____________O -1 28.20 -70.30 HU 80 11 329
1870 NA NA 21:00:00 TS 28.77 -70.64 840 785 _____________P -1 28.77 -70.64 HU 80 14 333
1870 NA NA 1870-09-16 00:00:00 TS 29.40 -71.00 785 724 _____________O -1 29.40 -71.00 HU 80 13 332
1870 NA NA 03:00:00 TS 29.96 -71.37 709 648 _____________P -1 29.96 -71.37 HU 80 13 331
1870 NA NA 06:00:00 TS 30.50 -71.70 648 588 _____________O -1 30.50 -71.70 HU 80 12 333
1870 NA NA 09:00:00 TS 31.05 -72.00 588 528 _____________P -1 31.05 -72.00 HU 80 12 339
1870 NA NA 12:00:00 TS 31.60 -72.20 528 491 _____________O -1 31.60 -72.20 HU 80 11 350
1870 NA NA 15:00:00 TS 32.17 -72.25 484 450 _____________P -1 32.17 -72.25 HU 80 11 0
1870 NA NA 18:00:00 TS 32.70 -72.20 450 424 _____________O -1 32.70 -72.20 HU 80 10 4
1870 NA NA 21:00:00 TS 33.12 -72.17 424 402 _____________P -1 33.12 -72.17 HU 80 8 6
1870 NA NA 1870-09-17 00:00:00 TS 33.50 -72.10 402 382 _____________O -1 33.50 -72.10 HU 80 8 12
1870 NA NA 03:00:00 TS 33.90 -71.97 382 372 _____________P -1 33.90 -71.97 HU 80 8 17
1870 NA NA 06:00:00 TS 34.30 -71.80 375 365 _____________O -1 34.30 -71.80 HU 80 9 18
1870 NA NA 09:00:00 TS 34.71 -71.64 373 363 _____________P -1 34.71 -71.64 HU 80 8 17
1870 NA NA 12:00:00 TS 35.10 -71.50 369 365 _____________O -1 35.10 -71.50 HU 80 982 8 15
1870 NA NA 15:00:00 TS 35.45 -71.40 372 370 _____________P -1 35.45 -71.40 HU 82 7 13
1870 NA NA 18:00:00 TS 35.80 -71.30 377 377 _____________O -1 35.80 -71.30 HU 85 8 14
1870 NA NA 21:00:00 TS 36.18 -71.17 388 388 _____________P -1 36.18 -71.17 HU 87 8 17
1870 NA NA 1870-09-18 00:00:00 TS 36.60 -71.00 407 400 _____________O -1 36.60 -71.00 HU 90 10 19
1870 NA NA 03:00:00 TS 37.08 -70.79 400 390 _____________P -1 37.08 -70.79 HU 92 11 22
1870 NA NA 06:00:00 TS 37.60 -70.50 391 364 _____________O -1 37.60 -70.50 HU 95 12 27
1870 NA NA 09:00:00 TS 38.11 -70.12 368 333 _____________P -1 38.11 -70.12 HU 95 12 32
1870 NA NA 12:00:00 TS 38.60 -69.70 333 299 _____________O -1 38.60 -69.70 HU 95 11 33
1870 NA NA 15:00:00 TS 39.02 -69.36 299 261 _____________P -1 39.02 -69.36 HU 95 11 35
1870 NA NA 18:00:00 TS 39.50 -68.90 261 222 _____________O -1 39.50 -68.90 HU 95 965 14 34
1870 NA NA 21:00:00 TS 40.16 -68.35 219 213 _____________P -1 40.16 -68.35 HU 95 963 19 41
1870 NA NA 1870-09-19 00:00:00 TS 40.90 -67.30 241 211 _____________O -1 40.90 -67.30 HU 95 962 26 55
1870 NA NA 03:00:00 TS 41.65 -65.57 211 182 _____________P -1 41.65 -65.57 HU 87 34 68
1870 NA NA 06:00:00 TS 42.20 -63.10 224 224 _____________O -1 42.20 -63.10 HU 80 42 83
1870 NA NA 09:00:00 TS 42.19 -59.98 344 344 _____________P -1 42.19 -59.98 HU 75 47 90
1870 NA NA 12:00:00 TS 42.20 -56.70 479 434 _____________O -1 42.20 -56.70 HU 70 46 83
1870 NA NA 15:00:00 TS 42.73 -53.74 433 354 _____________P -1 42.73 -53.74 HU 70 45 69
1870 NA NA 18:00:00 TS 43.80 -51.00 355 349 _____________O -1 43.80 -51.00 HU 70 969 46 56
1870 NA NA 21:00:00 TS 45.35 -48.44 390 390 _____________P -1 45.35 -48.44 HU 70 49 45
1870 NA NA 1870-09-20 00:00:00 TS 47.30 -46.00 494 494 _____________O -1 47.30 -46.00 HU 70 53 39
1870 NA NA 03:00:00 TS 49.47 -43.55 688 688 _____________P -1 49.47 -43.55 HU 70 53 38
1870 NA NA 06:00:00 ET 51.50 -41.00 913 870 _____________O -1 51.50 -41.00 EX 70 47 46
1870 NA NA 09:00:00 ET 52.74 -38.18 872 823 _____________P -1 52.74 -38.18 EX 70 42 54
1870 NA NA 12:00:00 ET 54.00 -35.30 821 779 _____________O -1 54.00 -35.30 EX 70 47 47
1870 NA NA 15:00:00 ET 55.94 -32.31 783 709 _____________P -1 55.94 -32.31 EX 65 55 39
1870 NA NA 18:00:00 ET 58.30 -29.00 694 _____________O -1 58.30 -29.00 EX 60 59 36